sensor_id;sensor_type;location;lat;lon;timestamp;pressure;altitude;pressure_sealevel;temperature;humidity
56721;BME280;53183;47.412;18.884;2023-02-22T00:00:59;99244.44;;;5.74;95.45
56721;BME280;53183;47.412;18.884;2023-02-22T00:03:33;99241.28;;;5.64;95.95
56721;BME280;53183;47.412;18.884;2023-02-22T00:06:02;99251.16;;;5.57;96.75
56721;BME280;53183;47.412;18.884;2023-02-22T00:08:33;99251.44;;;5.50;96.86
56721;BME280;53183;47.412;18.884;2023-02-22T00:11:04;99251.78;;;5.40;97.50
56721;BME280;53183;47.412;18.884;2023-02-22T00:13:35;99252.91;;;5.33;97.98
56721;BME280;53183;47.412;18.884;2023-02-22T00:16:04;99254.94;;;5.25;98.59
56721;BME280;53183;47.412;18.884;2023-02-22T00:18:31;99253.50;;;5.16;98.99
56721;BME280;53183;47.412;18.884;2023-02-22T00:20:59;99248.13;;;5.21;99.50
56721;BME280;53183;47.412;18.884;2023-02-22T00:23:29;99254.37;;;5.17;99.48
56721;BME280;53183;47.412;18.884;2023-02-22T00:25:58;99257.84;;;5.17;99.54
56721;BME280;53183;47.412;18.884;2023-02-22T00:28:26;99253.84;;;5.07;99.86
56721;BME280;53183;47.412;18.884;2023-02-22T00:30:54;99261.00;;;5.02;100.00
56721;BME280;53183;47.412;18.884;2023-02-22T00:33:21;99267.16;;;5.01;100.00
56721;BME280;53183;47.412;18.884;2023-02-22T00:35:49;99257.44;;;5.05;100.00
56721;BME280;53183;47.412;18.884;2023-02-22T00:38:17;99259.22;;;5.03;100.00
56721;BME280;53183;47.412;18.884;2023-02-22T00:40:45;99261.16;;;4.98;100.00
56721;BME280;53183;47.412;18.884;2023-02-22T00:43:12;99262.03;;;4.98;100.00
56721;BME280;53183;47.412;18.884;2023-02-22T00:45:40;99263.72;;;4.99;100.00
56721;BME280;53183;47.412;18.884;2023-02-22T00:48:08;99260.25;;;4.99;100.00
56721;BME280;53183;47.412;18.884;2023-02-22T00:50:36;99261.84;;;5.03;100.00
56721;BME280;53183;47.412;18.884;2023-02-22T00:53:05;99253.84;;;5.07;100.00
56721;BME280;53183;47.412;18.884;2023-02-22T00:55:36;99254.59;;;5.11;100.00
56721;BME280;53183;47.412;18.884;2023-02-22T00:58:04;99252.66;;;5.16;100.00
56721;BME280;53183;47.412;18.884;2023-02-22T01:00:37;99253.50;;;5.16;100.00
56721;BME280;53183;47.412;18.884;2023-02-22T01:03:08;99247.25;;;5.21;100.00
56721;BME280;53183;47.412;18.884;2023-02-22T01:05:36;99253.25;;;5.24;100.00
56721;BME280;53183;47.412;18.884;2023-02-22T01:08:08;99253.06;;;5.29;100.00
56721;BME280;53183;47.412;18.884;2023-02-22T01:10:36;99249.38;;;5.34;100.00
56721;BME280;53183;47.412;18.884;2023-02-22T01:13:04;99247.44;;;5.39;100.00
56721;BME280;53183;47.412;18.884;2023-02-22T01:15:37;99245.72;;;5.38;100.00
56721;BME280;53183;47.412;18.884;2023-02-22T01:18:06;99241.97;;;5.46;100.00
56721;BME280;53183;47.412;18.884;2023-02-22T01:20:33;99241.41;;;5.37;100.00
56721;BME280;53183;47.412;18.884;2023-02-22T01:23:02;99244.06;;;5.36;100.00
56721;BME280;53183;47.412;18.884;2023-02-22T01:25:33;99245.06;;;5.33;100.00
56721;BME280;53183;47.412;18.884;2023-02-22T01:28:04;99242.47;;;5.32;100.00
56721;BME280;53183;47.412;18.884;2023-02-22T01:30:33;99245.94;;;5.32;100.00
56721;BME280;53183;47.412;18.884;2023-02-22T01:33:03;99246.03;;;5.31;100.00
56721;BME280;53183;47.412;18.884;2023-02-22T01:35:34;99239.34;;;5.22;100.00
56721;BME280;53183;47.412;18.884;2023-02-22T01:38:02;99244.00;;;5.14;100.00
56721;BME280;53183;47.412;18.884;2023-02-22T01:40:34;99239.84;;;5.08;100.00
56721;BME280;53183;47.412;18.884;2023-02-22T01:43:15;99244.16;;;5.09;100.00
56721;BME280;53183;47.412;18.884;2023-02-22T01:45:53;99247.59;;;5.11;100.00
56721;BME280;53183;47.412;18.884;2023-02-22T01:51:01;99238.06;;;5.09;100.00
56721;BME280;53183;47.412;18.884;2023-02-22T01:53:37;99234.69;;;5.05;100.00
56721;BME280;53183;47.412;18.884;2023-02-22T01:56:06;99241.06;;;4.98;100.00
56721;BME280;53183;47.412;18.884;2023-02-22T01:58:35;99240.44;;;4.91;100.00
56721;BME280;53183;47.412;18.884;2023-02-22T02:01:05;99243.16;;;4.88;100.00
56721;BME280;53183;47.412;18.884;2023-02-22T02:03:35;99234.47;;;4.86;100.00
56721;BME280;53183;47.412;18.884;2023-02-22T02:06:08;99241.75;;;4.78;100.00
56721;BME280;53183;47.412;18.884;2023-02-22T02:11:08;99241.25;;;4.67;100.00
56721;BME280;53183;47.412;18.884;2023-02-22T02:13:36;99233.50;;;4.64;100.00
56721;BME280;53183;47.412;18.884;2023-02-22T02:16:03;99233.72;;;4.58;100.00
56721;BME280;53183;47.412;18.884;2023-02-22T02:18:31;99229.38;;;4.57;100.00
56721;BME280;53183;47.412;18.884;2023-02-22T02:27:09;99231.69;;;4.41;100.00
56721;BME280;53183;47.412;18.884;2023-02-22T02:32:54;99241.25;;;4.40;100.00
56721;BME280;53183;47.412;18.884;2023-02-22T02:44:00;99236.25;;;4.61;100.00
56721;BME280;53183;47.412;18.884;2023-02-22T02:46:32;99236.09;;;4.65;100.00
56721;BME280;53183;47.412;18.884;2023-02-22T02:49:04;99229.69;;;4.74;100.00
56721;BME280;53183;47.412;18.884;2023-02-22T02:51:36;99233.94;;;4.77;100.00
56721;BME280;53183;47.412;18.884;2023-02-22T02:54:05;99237.91;;;4.88;100.00
56721;BME280;53183;47.412;18.884;2023-02-22T02:56:34;99221.28;;;4.89;100.00
56721;BME280;53183;47.412;18.884;2023-02-22T02:59:01;99232.41;;;4.96;100.00
56721;BME280;53183;47.412;18.884;2023-02-22T03:02:21;99228.72;;;5.02;100.00
56721;BME280;53183;47.412;18.884;2023-02-22T03:08:00;99223.78;;;5.17;100.00
56721;BME280;53183;47.412;18.884;2023-02-22T03:11:36;99226.13;;;5.25;100.00
56721;BME280;53183;47.412;18.884;2023-02-22T03:13:57;99231.16;;;5.31;100.00
56721;BME280;53183;47.412;18.884;2023-02-22T03:16:47;99234.31;;;5.39;100.00
56721;BME280;53183;47.412;18.884;2023-02-22T03:19:35;99237.56;;;5.46;100.00
56721;BME280;53183;47.412;18.884;2023-02-22T03:22:13;99230.31;;;5.54;100.00
56721;BME280;53183;47.412;18.884;2023-02-22T03:25:19;99228.22;;;5.62;100.00
56721;BME280;53183;47.412;18.884;2023-02-22T03:27:54;99231.34;;;5.72;100.00
56721;BME280;53183;47.412;18.884;2023-02-22T03:30:36;99233.81;;;5.77;100.00
56721;BME280;53183;47.412;18.884;2023-02-22T03:33:11;99231.97;;;5.79;100.00
56721;BME280;53183;47.412;18.884;2023-02-22T03:35:51;99232.59;;;5.85;100.00
56721;BME280;53183;47.412;18.884;2023-02-22T03:38:25;99233.41;;;5.87;100.00
56721;BME280;53183;47.412;18.884;2023-02-22T03:40:58;99239.37;;;5.93;100.00
56721;BME280;53183;47.412;18.884;2023-02-22T03:43:47;99229.63;;;5.96;100.00
56721;BME280;53183;47.412;18.884;2023-02-22T03:46:17;99241.16;;;5.91;100.00
56721;BME280;53183;47.412;18.884;2023-02-22T03:49:00;99243.09;;;5.85;100.00
56721;BME280;53183;47.412;18.884;2023-02-22T03:51:30;99246.00;;;5.78;100.00
56721;BME280;53183;47.412;18.884;2023-02-22T03:53:58;99237.22;;;5.79;100.00
56721;BME280;53183;47.412;18.884;2023-02-22T03:56:30;99244.34;;;5.75;100.00
56721;BME280;53183;47.412;18.884;2023-02-22T03:59:07;99243.34;;;5.79;100.00
56721;BME280;53183;47.412;18.884;2023-02-22T04:01:35;99244.13;;;5.81;100.00
56721;BME280;53183;47.412;18.884;2023-02-22T04:04:04;99241.38;;;5.84;100.00
56721;BME280;53183;47.412;18.884;2023-02-22T04:06:31;99242.84;;;5.92;100.00
56721;BME280;53183;47.412;18.884;2023-02-22T04:09:00;99239.97;;;5.99;100.00
56721;BME280;53183;47.412;18.884;2023-02-22T04:11:28;99243.22;;;6.06;100.00
56721;BME280;53183;47.412;18.884;2023-02-22T04:13:55;99240.53;;;6.07;100.00
56721;BME280;53183;47.412;18.884;2023-02-22T04:16:23;99244.84;;;6.08;100.00
56721;BME280;53183;47.412;18.884;2023-02-22T04:18:50;99246.56;;;6.09;100.00
56721;BME280;53183;47.412;18.884;2023-02-22T04:21:17;99247.53;;;6.07;100.00
56721;BME280;53183;47.412;18.884;2023-02-22T04:23:45;99246.84;;;6.02;100.00
56721;BME280;53183;47.412;18.884;2023-02-22T04:26:12;99247.13;;;5.96;100.00
56721;BME280;53183;47.412;18.884;2023-02-22T04:28:39;99244.63;;;5.91;100.00
56721;BME280;53183;47.412;18.884;2023-02-22T04:31:07;99247.44;;;5.86;100.00
56721;BME280;53183;47.412;18.884;2023-02-22T04:33:34;99248.31;;;5.85;100.00
56721;BME280;53183;47.412;18.884;2023-02-22T04:36:02;99244.84;;;5.85;100.00
56721;BME280;53183;47.412;18.884;2023-02-22T04:38:30;99251.72;;;5.89;100.00
56721;BME280;53183;47.412;18.884;2023-02-22T04:40:58;99246.19;;;5.97;100.00
56721;BME280;53183;47.412;18.884;2023-02-22T04:43:25;99256.81;;;5.94;100.00
56721;BME280;53183;47.412;18.884;2023-02-22T04:45:54;99248.81;;;5.97;100.00
56721;BME280;53183;47.412;18.884;2023-02-22T04:48:22;99254.56;;;6.06;100.00
56721;BME280;53183;47.412;18.884;2023-02-22T04:50:49;99253.59;;;6.09;100.00
56721;BME280;53183;47.412;18.884;2023-02-22T04:53:18;99255.59;;;6.24;100.00
56721;BME280;53183;47.412;18.884;2023-02-22T04:55:45;99253.66;;;6.29;100.00
56721;BME280;53183;47.412;18.884;2023-02-22T04:58:12;99251.06;;;6.28;100.00
56721;BME280;53183;47.412;18.884;2023-02-22T05:00:39;99249.38;;;6.27;100.00
56721;BME280;53183;47.412;18.884;2023-02-22T05:03:08;99256.28;;;6.29;100.00
56721;BME280;53183;47.412;18.884;2023-02-22T05:05:35;99253.44;;;6.34;100.00
56721;BME280;53183;47.412;18.884;2023-02-22T05:08:02;99261.78;;;6.45;100.00
56721;BME280;53183;47.412;18.884;2023-02-22T05:10:29;99260.13;;;6.43;100.00
56721;BME280;53183;47.412;18.884;2023-02-22T05:12:56;99259.16;;;6.45;100.00
56721;BME280;53183;47.412;18.884;2023-02-22T05:15:23;99254.63;;;6.49;100.00
56721;BME280;53183;47.412;18.884;2023-02-22T05:17:52;99255.34;;;6.52;100.00
56721;BME280;53183;47.412;18.884;2023-02-22T05:20:23;99259.53;;;6.56;100.00
56721;BME280;53183;47.412;18.884;2023-02-22T05:22:51;99259.34;;;6.61;100.00
56721;BME280;53183;47.412;18.884;2023-02-22T05:25:18;99256.41;;;6.69;100.00
56721;BME280;53183;47.412;18.884;2023-02-22T05:27:54;99256.66;;;6.63;100.00
56721;BME280;53183;47.412;18.884;2023-02-22T05:30:26;99263.03;;;6.57;100.00
56721;BME280;53183;47.412;18.884;2023-02-22T05:32:54;99261.19;;;6.59;100.00
56721;BME280;53183;47.412;18.884;2023-02-22T05:35:22;99270.31;;;6.71;100.00
56721;BME280;53183;47.412;18.884;2023-02-22T05:37:49;99270.28;;;6.72;100.00
56721;BME280;53183;47.412;18.884;2023-02-22T05:40:22;99275.41;;;6.75;100.00
56721;BME280;53183;47.412;18.884;2023-02-22T05:42:51;99280.31;;;6.83;100.00
56721;BME280;53183;47.412;18.884;2023-02-22T05:45:20;99279.81;;;6.95;99.96
56721;BME280;53183;47.412;18.884;2023-02-22T05:47:49;99289.94;;;7.04;99.33
56721;BME280;53183;47.412;18.884;2023-02-22T05:50:17;99283.87;;;7.02;99.38
56721;BME280;53183;47.412;18.884;2023-02-22T05:52:46;99283.16;;;7.19;98.62
56721;BME280;53183;47.412;18.884;2023-02-22T05:55:16;99291.72;;;7.24;98.08
56721;BME280;53183;47.412;18.884;2023-02-22T05:57:44;99283.28;;;7.16;98.37
56721;BME280;53183;47.412;18.884;2023-02-22T06:00:21;99289.41;;;7.17;98.67
56721;BME280;53183;47.412;18.884;2023-02-22T06:03:08;99277.50;;;7.28;98.35
56721;BME280;53183;47.412;18.884;2023-02-22T06:05:37;99284.44;;;7.50;96.90
56721;BME280;53183;47.412;18.884;2023-02-22T06:08:06;99290.56;;;7.50;96.76
56721;BME280;53183;47.412;18.884;2023-02-22T06:10:33;99291.87;;;7.61;96.27
56721;BME280;53183;47.412;18.884;2023-02-22T06:13:01;99290.50;;;7.52;96.60
56721;BME280;53183;47.412;18.884;2023-02-22T06:15:29;99290.63;;;7.49;97.13
56721;BME280;53183;47.412;18.884;2023-02-22T06:17:57;99292.31;;;7.50;97.37
56721;BME280;53183;47.412;18.884;2023-02-22T06:20:27;99293.34;;;7.66;96.92
56721;BME280;53183;47.412;18.884;2023-02-22T06:22:56;99305.31;;;7.92;95.76
56721;BME280;53183;47.412;18.884;2023-02-22T06:25:27;99302.69;;;8.11;94.46
56721;BME280;53183;47.412;18.884;2023-02-22T06:27:54;99313.56;;;8.22;93.77
56721;BME280;53183;47.412;18.884;2023-02-22T06:30:23;99309.19;;;8.23;93.28
56721;BME280;53183;47.412;18.884;2023-02-22T06:32:51;99309.75;;;8.30;92.69
56721;BME280;53183;47.412;18.884;2023-02-22T06:35:19;99313.94;;;8.34;92.26
56721;BME280;53183;47.412;18.884;2023-02-22T06:37:46;99319.09;;;8.35;92.27
56721;BME280;53183;47.412;18.884;2023-02-22T06:40:14;99312.69;;;8.42;91.60
56721;BME280;53183;47.412;18.884;2023-02-22T06:42:41;99321.63;;;8.38;91.99
56721;BME280;53183;47.412;18.884;2023-02-22T06:45:09;99320.63;;;8.41;91.60
56721;BME280;53183;47.412;18.884;2023-02-22T06:47:40;99324.59;;;8.31;92.72
56721;BME280;53183;47.412;18.884;2023-02-22T06:50:26;99325.47;;;8.50;91.58
56721;BME280;53183;47.412;18.884;2023-02-22T06:52:57;99333.00;;;8.39;92.67
56721;BME280;53183;47.412;18.884;2023-02-22T06:55:31;99336.47;;;8.58;91.04
56721;BME280;53183;47.412;18.884;2023-02-22T06:57:59;99334.34;;;8.66;90.75
56721;BME280;53183;47.412;18.884;2023-02-22T07:00:28;99324.50;;;8.70;90.71
56721;BME280;53183;47.412;18.884;2023-02-22T07:02:58;99327.94;;;8.72;90.63
56721;BME280;53183;47.412;18.884;2023-02-22T07:05:26;99330.63;;;8.71;90.61
56721;BME280;53183;47.412;18.884;2023-02-22T07:08:00;99337.13;;;8.63;91.47
56721;BME280;53183;47.412;18.884;2023-02-22T07:10:29;99330.72;;;8.69;91.29
56721;BME280;53183;47.412;18.884;2023-02-22T07:12:58;99330.31;;;8.77;90.98
56721;BME280;53183;47.412;18.884;2023-02-22T07:15:28;99323.44;;;8.91;90.47
56721;BME280;53183;47.412;18.884;2023-02-22T07:17:55;99325.47;;;9.04;89.88
56721;BME280;53183;47.412;18.884;2023-02-22T07:20:24;99318.88;;;9.12;89.13
56721;BME280;53183;47.412;18.884;2023-02-22T07:22:52;99324.56;;;9.22;88.63
56721;BME280;53183;47.412;18.884;2023-02-22T07:25:19;99319.03;;;9.27;88.10
56721;BME280;53183;47.412;18.884;2023-02-22T07:27:47;99331.69;;;9.20;88.67
56721;BME280;53183;47.412;18.884;2023-02-22T07:30:24;99339.44;;;9.23;88.21
56721;BME280;53183;47.412;18.884;2023-02-22T07:32:53;99335.00;;;9.24;87.67
56721;BME280;53183;47.412;18.884;2023-02-22T07:35:26;99337.72;;;9.22;87.99
56721;BME280;53183;47.412;18.884;2023-02-22T07:37:54;99330.44;;;9.10;87.89
56721;BME280;53183;47.412;18.884;2023-02-22T07:40:23;99341.38;;;9.02;88.31
56721;BME280;53183;47.412;18.884;2023-02-22T07:42:59;99344.47;;;9.10;88.21
56721;BME280;53183;47.412;18.884;2023-02-22T07:45:31;99339.13;;;9.12;88.12
56721;BME280;53183;47.412;18.884;2023-02-22T07:48:02;99342.06;;;9.23;87.88
56721;BME280;53183;47.412;18.884;2023-02-22T07:50:30;99339.03;;;9.31;87.55
56721;BME280;53183;47.412;18.884;2023-02-22T07:53:01;99338.28;;;9.29;87.71
56721;BME280;53183;47.412;18.884;2023-02-22T07:55:30;99336.19;;;9.35;87.48
56721;BME280;53183;47.412;18.884;2023-02-22T07:58:00;99335.63;;;9.46;86.65
56721;BME280;53183;47.412;18.884;2023-02-22T08:00:32;99336.25;;;9.51;86.59
56721;BME280;53183;47.412;18.884;2023-02-22T08:03:03;99338.16;;;9.65;86.09
56721;BME280;53183;47.412;18.884;2023-02-22T08:05:31;99337.75;;;9.73;85.84
56721;BME280;53183;47.412;18.884;2023-02-22T08:07:58;99335.59;;;10.13;83.91
56721;BME280;53183;47.412;18.884;2023-02-22T08:10:26;99335.16;;;10.38;82.77
56721;BME280;53183;47.412;18.884;2023-02-22T08:12:54;99336.63;;;10.43;82.92
56721;BME280;53183;47.412;18.884;2023-02-22T08:15:28;99335.91;;;10.40;81.88
56721;BME280;53183;47.412;18.884;2023-02-22T08:17:56;99334.66;;;10.47;81.63
56721;BME280;53183;47.412;18.884;2023-02-22T08:20:24;99336.25;;;10.65;81.06
56721;BME280;53183;47.412;18.884;2023-02-22T08:22:52;99337.44;;;10.75;80.72
56721;BME280;53183;47.412;18.884;2023-02-22T08:25:23;99337.19;;;10.80;80.76
56721;BME280;53183;47.412;18.884;2023-02-22T08:27:51;99336.66;;;10.89;80.30
56721;BME280;53183;47.412;18.884;2023-02-22T08:30:20;99336.69;;;11.03;79.25
56721;BME280;53183;47.412;18.884;2023-02-22T08:32:49;99338.22;;;11.08;79.23
56721;BME280;53183;47.412;18.884;2023-02-22T08:35:20;99339.69;;;11.27;78.92
56721;BME280;53183;47.412;18.884;2023-02-22T08:37:50;99335.25;;;11.58;77.72
56721;BME280;53183;47.412;18.884;2023-02-22T08:40:22;99344.75;;;11.61;77.25
56721;BME280;53183;47.412;18.884;2023-02-22T08:42:49;99339.50;;;11.75;76.28
56721;BME280;53183;47.412;18.884;2023-02-22T08:45:16;99336.47;;;11.81;75.04
56721;BME280;53183;47.412;18.884;2023-02-22T08:47:43;99344.81;;;12.04;75.92
56721;BME280;53183;47.412;18.884;2023-02-22T08:50:17;99339.41;;;12.19;74.79
56721;BME280;53183;47.412;18.884;2023-02-22T08:52:46;99340.53;;;12.30;74.11
56721;BME280;53183;47.412;18.884;2023-02-22T08:55:13;99338.94;;;12.27;73.77
56721;BME280;53183;47.412;18.884;2023-02-22T08:57:40;99346.94;;;12.40;74.14
56721;BME280;53183;47.412;18.884;2023-02-22T09:00:08;99336.34;;;12.54;73.82
56721;BME280;53183;47.412;18.884;2023-02-22T09:02:35;99337.69;;;12.74;71.66
56721;BME280;53183;47.412;18.884;2023-02-22T09:05:02;99333.31;;;12.73;71.66
56721;BME280;53183;47.412;18.884;2023-02-22T09:07:31;99345.03;;;12.56;72.56
56721;BME280;53183;47.412;18.884;2023-02-22T09:09:59;99335.50;;;12.54;72.50
56721;BME280;53183;47.412;18.884;2023-02-22T09:12:26;99333.78;;;12.53;73.06
56721;BME280;53183;47.412;18.884;2023-02-22T09:14:53;99339.78;;;12.69;72.46
56721;BME280;53183;47.412;18.884;2023-02-22T09:17:20;99338.41;;;12.90;70.92
56721;BME280;53183;47.412;18.884;2023-02-22T09:19:47;99339.00;;;12.81;69.76
56721;BME280;53183;47.412;18.884;2023-02-22T09:22:14;99334.78;;;12.64;70.58
56721;BME280;53183;47.412;18.884;2023-02-22T09:24:41;99332.44;;;12.87;71.01
56721;BME280;53183;47.412;18.884;2023-02-22T09:27:09;99335.81;;;12.89;69.73
56721;BME280;53183;47.412;18.884;2023-02-22T09:29:37;99324.84;;;13.08;69.83
56721;BME280;53183;47.412;18.884;2023-02-22T09:32:05;99327.31;;;13.11;68.93
56721;BME280;53183;47.412;18.884;2023-02-22T09:34:33;99326.34;;;13.12;68.76
56721;BME280;53183;47.412;18.884;2023-02-22T09:37:01;99325.91;;;13.05;69.32
56721;BME280;53183;47.412;18.884;2023-02-22T09:39:28;99325.56;;;12.97;67.58
56721;BME280;53183;47.412;18.884;2023-02-22T09:42:12;99323.28;;;12.78;69.25
56721;BME280;53183;47.412;18.884;2023-02-22T09:44:49;99326.06;;;12.62;70.39
56721;BME280;53183;47.412;18.884;2023-02-22T09:47:23;99320.38;;;12.68;70.01
56721;BME280;53183;47.412;18.884;2023-02-22T09:50:07;99315.53;;;12.75;69.92
56721;BME280;53183;47.412;18.884;2023-02-22T10:07:01;99313.13;;;12.85;69.34
56721;BME280;53183;47.412;18.884;2023-02-22T10:09:35;99321.72;;;12.88;68.79
56721;BME280;53183;47.412;18.884;2023-02-22T10:12:09;99317.25;;;12.89;69.38
56721;BME280;53183;47.412;18.884;2023-02-22T10:20:38;99311.28;;;13.00;67.95
56721;BME280;53183;47.412;18.884;2023-02-22T10:25:49;99308.41;;;13.15;67.79
56721;BME280;53183;47.412;18.884;2023-02-22T10:28:20;99306.94;;;13.11;68.19
56721;BME280;53183;47.412;18.884;2023-02-22T10:30:54;99308.84;;;13.22;67.77
56721;BME280;53183;47.412;18.884;2023-02-22T10:33:32;99303.38;;;13.25;67.64
56721;BME280;53183;47.412;18.884;2023-02-22T10:36:01;99302.63;;;13.23;68.50
56721;BME280;53183;47.412;18.884;2023-02-22T10:38:31;99300.84;;;13.36;67.62
56721;BME280;53183;47.412;18.884;2023-02-22T10:43:36;99297.97;;;13.27;67.88
56721;BME280;53183;47.412;18.884;2023-02-22T10:46:06;99301.34;;;13.29;68.37
56721;BME280;53183;47.412;18.884;2023-02-22T10:48:36;99297.47;;;13.47;67.80
56721;BME280;53183;47.412;18.884;2023-02-22T10:51:07;99301.38;;;13.67;67.63
56721;BME280;53183;47.412;18.884;2023-02-22T10:53:35;99302.00;;;13.83;66.09
56721;BME280;53183;47.412;18.884;2023-02-22T10:56:19;99290.97;;;13.77;67.83
56721;BME280;53183;47.412;18.884;2023-02-22T11:01:20;99297.66;;;13.95;67.73
56721;BME280;53183;47.412;18.884;2023-02-22T11:06:34;99293.00;;;13.60;68.04
56721;BME280;53183;47.412;18.884;2023-02-22T11:09:09;99298.00;;;13.52;68.02
56721;BME280;53183;47.412;18.884;2023-02-22T11:11:39;99285.44;;;13.42;67.90
56721;BME280;53183;47.412;18.884;2023-02-22T11:14:08;99286.19;;;13.44;67.68
56721;BME280;53183;47.412;18.884;2023-02-22T11:16:50;99289.69;;;13.44;68.20
56721;BME280;53183;47.412;18.884;2023-02-22T11:19:27;99283.00;;;13.51;68.70
56721;BME280;53183;47.412;18.884;2023-02-22T11:22:08;99278.75;;;13.74;67.87
56721;BME280;53183;47.412;18.884;2023-02-22T11:24:48;99282.84;;;14.04;66.56
56721;BME280;53183;47.412;18.884;2023-02-22T11:27:40;99270.13;;;13.96;66.80
56721;BME280;53183;47.412;18.884;2023-02-22T11:30:32;99271.28;;;14.05;66.77
56721;BME280;53183;47.412;18.884;2023-02-22T11:33:18;99265.41;;;14.13;65.65
56721;BME280;53183;47.412;18.884;2023-02-22T11:35:52;99264.66;;;14.11;66.48
56721;BME280;53183;47.412;18.884;2023-02-22T11:38:28;99269.19;;;14.21;65.30
56721;BME280;53183;47.412;18.884;2023-02-22T11:41:27;99269.09;;;14.23;65.52
56721;BME280;53183;47.412;18.884;2023-02-22T11:46:47;99262.84;;;14.11;65.78
56721;BME280;53183;47.412;18.884;2023-02-22T11:49:16;99259.25;;;14.12;65.92
56721;BME280;53183;47.412;18.884;2023-02-22T11:57:08;99260.94;;;14.13;65.46
56721;BME280;53183;47.412;18.884;2023-02-22T12:18:12;99249.91;;;14.06;64.52
56721;BME280;53183;47.412;18.884;2023-02-22T12:20:45;99243.53;;;14.09;65.98
56721;BME280;53183;47.412;18.884;2023-02-22T12:23:21;99242.06;;;14.05;63.47
56721;BME280;53183;47.412;18.884;2023-02-22T12:26:02;99246.06;;;14.11;63.45
56721;BME280;53183;47.412;18.884;2023-02-22T12:28:35;99243.34;;;13.99;63.73
56721;BME280;53183;47.412;18.884;2023-02-22T12:34:01;99238.25;;;13.83;63.47
56721;BME280;53183;47.412;18.884;2023-02-22T12:36:41;99235.59;;;13.83;60.29
56721;BME280;53183;47.412;18.884;2023-02-22T12:45:43;99231.72;;;13.25;64.24
56721;BME280;53183;47.412;18.884;2023-02-22T12:48:30;99228.84;;;13.28;63.99
56721;BME280;53183;47.412;18.884;2023-02-22T12:51:11;99229.81;;;13.27;63.59
56721;BME280;53183;47.412;18.884;2023-02-22T12:53:52;99224.50;;;13.40;64.12
56721;BME280;53183;47.412;18.884;2023-02-22T12:56:33;99221.28;;;13.22;63.06
56721;BME280;53183;47.412;18.884;2023-02-22T12:59:13;99222.66;;;13.15;63.87
56721;BME280;53183;47.412;18.884;2023-02-22T13:01:45;99215.34;;;13.19;63.44
56721;BME280;53183;47.412;18.884;2023-02-22T13:04:16;99218.31;;;13.14;64.32
56721;BME280;53183;47.412;18.884;2023-02-22T13:09:59;99209.81;;;12.96;62.32
56721;BME280;53183;47.412;18.884;2023-02-22T13:18:26;99211.09;;;13.03;62.08
56721;BME280;53183;47.412;18.884;2023-02-22T13:21:03;99213.84;;;13.14;62.25
56721;BME280;53183;47.412;18.884;2023-02-22T13:24:03;99219.69;;;13.07;63.10
56721;BME280;53183;47.412;18.884;2023-02-22T13:26:51;99216.41;;;13.03;62.95
56721;BME280;53183;47.412;18.884;2023-02-22T13:29:26;99213.53;;;12.94;61.73
56721;BME280;53183;47.412;18.884;2023-02-22T13:38:01;99214.19;;;12.97;63.07
56721;BME280;53183;47.412;18.884;2023-02-22T13:46:28;99225.94;;;12.80;64.22
56721;BME280;53183;47.412;18.884;2023-02-22T13:51:55;99230.34;;;12.67;65.31
56721;BME280;53183;47.412;18.884;2023-02-22T13:54:33;99230.34;;;12.67;65.77
56721;BME280;53183;47.412;18.884;2023-02-22T13:57:16;99226.56;;;12.57;66.24
56721;BME280;53183;47.412;18.884;2023-02-22T13:59:45;99223.53;;;12.63;66.86
56721;BME280;53183;47.412;18.884;2023-02-22T14:13:30;99217.00;;;12.81;65.88
56721;BME280;53183;47.412;18.884;2023-02-22T14:18:35;99214.47;;;12.93;64.96
56721;BME280;53183;47.412;18.884;2023-02-22T14:21:12;99214.91;;;12.99;63.32
56721;BME280;53183;47.412;18.884;2023-02-22T14:23:43;99220.19;;;12.74;65.58
56721;BME280;53183;47.412;18.884;2023-02-22T14:31:31;99217.09;;;12.80;64.58
56721;BME280;53183;47.412;18.884;2023-02-22T14:39:41;99209.78;;;12.71;65.06
56721;BME280;53183;47.412;18.884;2023-02-22T14:44:59;99211.34;;;12.73;64.51
56721;BME280;53183;47.412;18.884;2023-02-22T14:47:35;99209.13;;;12.67;65.69
56721;BME280;53183;47.412;18.884;2023-02-22T14:50:13;99204.78;;;12.66;65.89
56721;BME280;53183;47.412;18.884;2023-02-22T14:52:44;99198.53;;;12.67;66.12
56721;BME280;53183;47.412;18.884;2023-02-22T14:55:18;99206.69;;;12.64;65.66
56721;BME280;53183;47.412;18.884;2023-02-22T15:01:31;99198.38;;;12.56;64.12
56721;BME280;53183;47.412;18.884;2023-02-22T15:04:29;99203.38;;;12.48;64.84
56721;BME280;53183;47.412;18.884;2023-02-22T15:06:59;99208.03;;;12.44;65.13
56721;BME280;53183;47.412;18.884;2023-02-22T15:09:30;99203.44;;;12.46;65.05
56721;BME280;53183;47.412;18.884;2023-02-22T15:14:34;99199.25;;;12.29;66.00
56721;BME280;53183;47.412;18.884;2023-02-22T15:17:20;99197.41;;;12.17;67.39
56721;BME280;53183;47.412;18.884;2023-02-22T15:19:48;99201.84;;;12.16;66.25
56721;BME280;53183;47.412;18.884;2023-02-22T15:22:25;99196.94;;;12.10;67.43
56721;BME280;53183;47.412;18.884;2023-02-22T15:25:01;99197.59;;;12.14;67.45
56721;BME280;53183;47.412;18.884;2023-02-22T15:27:29;99190.81;;;12.10;67.22
56721;BME280;53183;47.412;18.884;2023-02-22T15:30:04;99191.31;;;12.02;67.94
56721;BME280;53183;47.412;18.884;2023-02-22T15:37:59;99194.59;;;12.06;67.48
56721;BME280;53183;47.412;18.884;2023-02-22T15:40:27;99187.50;;;12.06;66.96
56721;BME280;53183;47.412;18.884;2023-02-22T15:43:05;99198.88;;;11.94;68.32
56721;BME280;53183;47.412;18.884;2023-02-22T15:45:35;99195.59;;;11.76;68.39
56721;BME280;53183;47.412;18.884;2023-02-22T15:48:10;99189.66;;;11.72;69.19
56721;BME280;53183;47.412;18.884;2023-02-22T15:50:37;99185.09;;;11.74;68.50
56721;BME280;53183;47.412;18.884;2023-02-22T15:53:16;99189.44;;;11.76;68.33